Terminal Aerodrome Forecast
Issued by NWS

Home | Current Version | Previous Version | Text Only | Print | Product List | Glossary On
Versions: 1 2 3 4 5 6 7 8 9 10 11 12 13 14 15 16 17 18 19 20 21 22 23 24 25 26 27 28 29 30 31 32 33 34 35 36 37 38 39 40 41
000
FTUS43 KLOT 061729
TAFDPA
TAF
KDPA 061729Z 0618/0718 14007KT P6SM SCT080
     FM062100 08007KT P6SM FEW050
     FM070100 12005KT 5SM HZ FEW004 SCT050
     FM070600 18005KT P6SM SCT180
     FM071500 18014G22KT P6SM SCT050 SCT180=

USA.gov is the U.S. government's official web portal to all federal, state and local government web resources and services.